Latest Weather Observations for West Wyalong

IDN60801

Issued at 11:05 am EDT Wednesday 4 March 2015 (issued every 30 minutes, with the page automatically refreshed every 10 minutes)

About weather observations | Map of weather stations | Latest weather observations for NSW | Other Formats
Station Details ID: 050017 Name: WEST WYALONG AIRPORT AWS Lat: -33.94 Lon: 147.20 Height: 257.0 m
Data from the previous 72 hours. | See also: Recent months for locations in New South Wales
Date/Time
EDT
Temp
°C
App
Temp
°C
Dew
Point
Rel
Hum
%
Delta-T
°C
Wind Press
QNH
hPa
Press
MSL
hPa
Rain
since 9 am
mm
Dir
 
Spd
km/h
Gust
km/h
Spd
kts
Gust
kts
04/11:00am 28.3 24.1 5.8 24 11.9 SSW 17 28 9 15 1014.7 1013.7 0.0
04/10:30am 27.7 24.3 5.9 25 11.5 SSE 13 22 7 12 1014.9 1013.9 0.0
04/10:00am 27.3 24.2 7.2 28 10.8 SSE 13 19 7 10 1014.7 1013.7 0.0
04/09:30am 24.7 23.8 10.6 41 7.9 SSW 6 9 3 5 1015.0 1014.0 0.0
04/09:00am 22.9 22.4 11.9 50 6.3 S 6 7 3 4 1014.7 1013.7 0.0
04/08:30am 21.4 19.9 8.3 43 7.0 SW 6 7 3 4 1014.6 1013.6 0.0
04/08:00am 17.7 16.9 6.6 48 5.6 CALM 0 6 0 3 1014.3 1013.3 0.0
04/07:30am 15.0 12.9 6.6 57 4.1 WSW 7 9 4 5 1013.9 1012.9 0.0
04/07:00am 14.0 13.1 5.9 58 3.9 CALM 0 0 0 0 1013.4 1012.3 0.0
04/06:30am 15.1 13.2 5.0 51 4.8 WSW 4 6 2 3 1013.1 1012.0 0.0
04/06:00am 15.5 13.0 4.8 49 5.1 WSW 7 7 4 4 1012.8 1011.8 0.0
04/05:30am 17.4 14.8 4.4 42 6.2 SW 7 9 4 5 1012.7 1011.7 0.0
04/05:00am 18.0 15.3 3.9 39 6.7 SW 7 9 4 5 1012.6 1011.6 0.0
04/04:30am 19.1 16.0 3.7 36 7.4 SW 9 11 5 6 1012.6 1011.6 0.0
04/04:00am 19.8 17.3 3.5 34 7.8 SSW 6 7 3 4 1012.8 1011.8 0.0
04/03:30am 20.1 17.4 3.8 34 7.9 SW 7 9 4 5 1013.0 1011.9 0.0
04/03:00am 20.2 17.4 3.4 33 8.1 SW 7 7 4 4 1013.2 1012.1 0.0
04/02:30am 20.3 17.6 3.5 33 8.1 WSW 7 11 4 6 1013.4 1012.3 0.0
04/02:00am 20.9 17.7 3.2 31 8.5 WSW 9 11 5 6 1013.5 1012.4 0.0
04/01:30am 22.6 18.7 3.2 28 9.4 S 13 19 7 10 1013.5 1012.4 0.0
04/01:00am 23.3 19.0 3.3 27 9.8 S 15 20 8 11 1013.5 1012.4 0.0
04/12:30am 23.9 19.6 3.2 26 10.2 SSW 15 20 8 11 1013.6 1012.5 0.0
04/12:00am 24.7 19.7 3.4 25 10.5 SSW 19 22 10 12 1013.5 1012.4 0.0
 
Date/Time
EDT
Temp
°C
App
Temp
°C
Dew
Point
Rel
Hum
%
Delta-T
°C
Wind Press
QNH
hPa
Press
MSL
hPa
Rain
since 9 am
mm
Dir
 
Spd
km/h
Gust
km/h
Spd
kts
Gust
kts
03/11:30pm 24.8 20.3 4.0 26 10.4 SSW 17 22 9 12 1013.5 1012.4 0.0
03/11:00pm 23.6 19.5 4.5 29 9.6 SW 15 17 8 9 1013.4 1012.3 0.0
03/10:30pm 24.4 20.4 4.7 28 10.0 SW 15 19 8 10 1013.4 1012.3 0.0
03/10:00pm 24.6 20.2 4.9 28 10.0 SW 17 19 9 10 1013.4 1012.3 0.0
03/09:30pm 24.1 20.8 4.5 28 9.9 WSW 11 13 6 7 1013.2 1012.1 0.0
03/09:00pm 24.8 21.5 4.5 27 10.3 SW 11 11 6 6 1013.1 1012.0 0.0
03/08:30pm 25.9 22.7 4.9 26 10.8 SW 11 11 6 6 1012.6 1011.6 0.0
03/08:00pm 28.0 24.0 5.0 23 12.0 SW 15 17 8 9 1012.4 1011.4 0.0
03/07:30pm 29.9 26.2 4.5 20 13.3 SW 13 19 7 10 1012.2 1011.2 0.0
03/07:00pm 31.2 26.8 4.9 19 13.9 SW 17 26 9 14 1012.0 1011.0 0.0
03/06:30pm 31.3 27.5 5.7 20 13.7 SSW 15 19 8 10 1011.9 1010.9 0.0
03/06:00pm 32.3 27.9 6.5 20 14.1 SW 19 28 10 15 1011.7 1010.7 0.0
03/05:30pm 32.3 27.9 6.5 20 14.1 SW 19 28 10 15 1011.7 1010.7 0.0
03/05:00pm 33.2 29.2 6.5 19 14.7 SW 17 24 9 13 1011.8 1010.8 0.0
03/04:30pm 31.9 29.0 8.2 23 13.3 SW 13 17 7 9 1011.9 1010.9 0.0
03/04:00pm 33.0 29.4 9.7 24 13.4 WSW 19 30 10 16 1012.1 1011.1 0.0
03/03:30pm 31.1 29.7 11.0 29 11.7 SSW 9 15 5 8 1012.3 1011.3 0.0
03/03:00pm 31.7 29.0 10.4 27 12.3 SSW 15 24 8 13 1012.7 1011.7 0.0
03/02:30pm 31.4 28.4 10.7 28 12.0 SW 17 26 9 14 1013.1 1012.0 0.0
03/02:00pm 31.9 29.6 11.7 29 12.0 WSW 15 24 8 13 1013.2 1012.1 0.0
03/01:30pm 31.9 29.5 12.7 31 11.5 WSW 17 26 9 14 1013.4 1012.3 0.0
03/01:00pm 30.8 30.6 13.6 35 10.4 NW 7 17 4 9 1013.7 1012.6 0.0
03/12:30pm 30.2 29.9 14.3 38 9.7 NW 9 19 5 10 1014.1 1013.1 0.0
03/12:00pm 29.3 28.2 14.3 40 9.1 WNW 13 22 7 12 1014.4 1013.4 0.0
03/11:30am 28.5 26.8 14.7 43 8.4 NNW 17 24 9 13 1014.8 1013.8 0.0
03/11:00am 27.4 25.7 14.8 46 7.7 NNW 17 24 9 13 1015.0 1014.0 0.0
03/10:30am 26.2 24.5 14.6 48 7.0 N 17 28 9 15 1015.0 1014.0 0.0
03/10:00am 24.6 22.3 14.1 52 6.3 N 19 26 10 14 1015.1 1014.1 0.0
03/09:30am 23.9 21.8 13.7 53 6.0 N 17 22 9 12 1015.2 1014.2 0.0
03/09:00am 23.0 21.7 13.8 56 5.4 NE 13 17 7 9 1015.0 1014.0 0.0
03/08:30am 22.1 21.2 13.7 59 4.9 NE 11 17 6 9 1014.8 1013.8 0.0
03/08:00am 20.5 20.5 13.5 64 4.1 ENE 6 9 3 5 1014.8 1013.8 0.0
03/07:30am 18.4 19.4 13.3 72 2.9 CALM 0 4 0 2 1014.3 1013.3 0.0
03/07:00am 18.1 17.7 13.0 72 2.9 NNE 7 11 4 6 1014.1 1013.1 0.0
03/06:30am 18.2 17.5 13.1 72 2.9 NE 9 11 5 6 1013.5 1012.4 0.0
03/06:00am 17.2 17.8 11.9 71 2.9 CALM 0 0 0 0 1013.3 1012.2 0.0
03/05:30am 17.5 18.1 12.0 70 3.1 CALM 0 0 0 0 1013.3 1012.2 0.0
03/05:00am 17.5 16.9 11.8 69 3.2 SE 6 7 3 4 1013.0 1011.9 0.0
03/04:30am 18.1 18.5 11.4 65 3.7 CALM 0 6 0 3 1013.0 1011.9 0.0
03/04:00am 19.0 18.4 11.8 63 4.0 NNE 6 7 3 4 1013.2 1012.1 0.0
03/03:30am 19.3 19.4 11.6 61 4.3 ENE 2 7 1 4 1013.0 1011.9 0.0
03/03:00am 20.1 19.5 11.6 58 4.8 ENE 6 9 3 5 1012.7 1011.7 0.0
03/02:30am 21.1 19.5 11.7 55 5.3 ENE 11 15 6 8 1012.7 1011.7 0.0
03/02:00am 20.4 19.0 10.8 54 5.3 ESE 9 15 5 8 1012.8 1011.8 0.0
03/01:30am 20.6 19.5 10.1 51 5.7 NE 6 11 3 6 1012.7 1011.7 0.0
03/01:00am 20.5 19.3 9.4 49 6.0 ESE 6 9 3 5 1013.0 1011.9 0.0
03/12:30am 21.9 19.9 8.8 43 7.0 ESE 9 11 5 6 1012.8 1011.8 0.0
03/12:00am 20.7 20.2 9.3 48 6.1 SSE 2 13 1 7 1012.8 1011.8 0.0
 
Date/Time
EDT
Temp
°C
App
Temp
°C
Dew
Point
Rel
Hum
%
Delta-T
°C
Wind Press
QNH
hPa
Press
MSL
hPa
Rain
since 9 am
mm
Dir
 
Spd
km/h
Gust
km/h
Spd
kts
Gust
kts
02/11:30pm 22.1 21.9 8.9 43 7.1 CALM 0 0 0 0 1012.6 1011.6 0.0
02/11:00pm 22.3 22.0 8.8 42 7.3 CALM 0 0 0 0 1012.5 1011.5 0.0
02/10:30pm 22.2 21.9 8.7 42 7.3 CALM 0 0 0 0 1012.6 1011.6 0.0
02/10:00pm 22.9 22.6 8.6 40 7.7 CALM 0 0 0 0 1012.6 1011.6 0.0
02/09:30pm 23.3 23.0 8.6 39 7.9 CALM 0 0 0 0 1012.5 1011.5 0.0
02/09:00pm 24.7 24.3 8.2 35 8.9 CALM 0 0 0 0 1012.2 1011.2 0.0
02/08:30pm 26.7 25.1 8.2 31 10.1 S 6 7 3 4 1011.8 1010.8 0.0
02/08:00pm 28.4 26.6 8.1 28 11.2 SE 7 9 4 5 1011.5 1010.5 0.0
02/07:30pm 30.4 29.2 8.2 25 12.3 NW 4 9 2 5 1011.2 1010.2 0.0
02/07:00pm 30.6 28.4 7.7 24 12.7 E 9 13 5 7 1011.3 1010.3 0.0
02/06:30pm 32.0 30.3 7.6 22 13.5 E 6 11 3 6 1011.4 1010.4 0.0
02/06:00pm 32.6 30.8 8.1 22 13.8 WSW 7 11 4 6 1011.4 1010.4 0.0
02/05:30pm 32.1 29.5 6.3 20 14.0 NNW 9 20 5 11 1011.3 1010.3 0.0
02/05:00pm 31.9 30.2 8.2 23 13.3 NE 7 15 4 8 1011.1 1010.1 0.0
02/04:30pm 31.9 29.2 8.8 24 13.1 N 13 17 7 9 1011.7 1010.7 0.0
02/04:00pm 31.7 30.2 9.3 25 12.8 NNE 7 13 4 7 1011.9 1010.9 0.0
02/03:30pm 31.0 28.9 9.8 27 12.1 NNE 11 20 6 11 1012.3 1011.3 0.0
02/03:00pm 31.3 28.9 10.1 27 12.2 ENE 13 20 7 11 1013.0 1011.9 0.0
02/02:30pm 29.9 27.5 9.9 29 11.4 NNW 13 17 7 9 1013.6 1012.5 0.0
02/02:00pm 28.8 26.6 10.9 33 10.3 NNE 13 20 7 11 1014.0 1013.0 0.0
02/01:30pm 29.5 27.1 11.5 33 10.5 NNE 15 24 8 13 1014.3 1013.3 0.0
02/01:00pm 28.3 26.7 11.4 35 9.8 NE 11 20 6 11 1014.7 1013.7 0.0
02/12:30pm 27.1 25.1 11.6 38 9.0 ENE 13 20 7 11 1015.4 1014.4 0.0
02/12:00pm 26.5 24.1 11.4 39 8.7 ENE 15 26 8 14 1015.9 1014.9 0.0
02/11:30am 25.0 21.8 10.1 39 8.3 E 17 22 9 12 1016.3 1015.3 0.0
02/11:00am 23.7 20.1 10.4 43 7.4 E 20 30 11 16 1016.4 1015.4 0.0
02/10:30am 22.7 18.9 9.8 44 7.1 E 20 28 11 15 1016.7 1015.7 0.0
02/10:00am 21.5 17.2 9.4 46 6.5 E 22 32 12 17 1016.8 1015.8 0.0
02/09:30am 20.3 16.3 9.2 49 6.0 E 20 28 11 15 1016.8 1015.8 0.0
02/09:00am 19.4 15.1 9.3 52 5.4 E 22 32 12 17 1016.8 1015.8 0.0
02/08:30am 18.6 14.8 9.7 56 4.8 E 20 32 11 17 1016.5 1015.5 0.0
02/08:00am 17.4 12.8 9.6 60 4.1 ESE 24 33 13 18 1016.3 1015.3 0.0
02/07:30am 16.6 12.8 9.8 64 3.6 E 20 30 11 16 1015.8 1014.8 0.0
02/07:00am 16.5 13.1 10.4 67 3.3 E 19 24 10 13 1015.5 1014.5 0.0
02/06:30am 16.6 13.2 10.7 68 3.2 E 19 24 10 13 1015.4 1014.4 0.0
02/06:00am 16.9 13.6 11.0 68 3.2 ESE 19 24 10 13 1015.1 1014.1 0.0
02/05:30am 17.0 14.6 11.3 69 3.1 E 15 20 8 11 1014.9 1013.9 0.0
02/05:00am 17.2 14.4 11.5 69 3.1 E 17 30 9 16 1014.5 1013.5 0.0
02/04:30am 17.2 14.1 11.5 69 3.1 ESE 19 28 10 15 1014.5 1013.5 0.0
02/04:00am 17.5 14.3 11.8 69 3.2 ESE 20 28 11 15 1014.3 1013.3 0.0
02/03:30am 17.7 14.5 11.9 69 3.2 ESE 20 28 11 15 1014.5 1013.5 0.0
02/03:00am 17.8 14.9 12.3 70 3.1 ESE 19 26 10 14 1014.5 1013.5 0.0
02/02:30am 18.0 15.2 12.5 70 3.1 ESE 19 24 10 13 1014.5 1013.5 0.0
02/02:00am 17.6 15.6 11.4 67 3.4 SE 13 19 7 10 1014.3 1013.3 0.0
02/01:30am 17.8 14.8 7.8 52 5.1 SE 13 15 7 8 1014.1 1013.1 0.0
02/01:00am 18.2 15.2 5.8 44 6.1 SSE 11 17 6 9 1014.3 1013.3 0.0
02/12:30am 18.0 14.7 4.6 41 6.5 SSE 11 17 6 9 1014.1 1013.1 0.0
02/12:00am 18.5 14.3 3.9 38 7.0 SW 15 19 8 10 1013.2 1012.1 0.0
 
Date/Time
EDT
Temp
°C
App
Temp
°C
Dew
Point
Rel
Hum
%
Delta-T
°C
Wind Press
QNH
hPa
Press
MSL
hPa
Rain
since 9 am
mm
Dir
 
Spd
km/h
Gust
km/h
Spd
kts
Gust
kts
01/11:30pm 19.0 14.8 3.6 36 7.4 SW 15 20 8 11 1013.3 1012.2 0.0
01/11:00pm 19.9 15.9 2.7 32 8.1 SSW 13 17 7 9 1013.2 1012.1 0.0
01/10:30pm 21.5 16.7 2.7 29 9.0 SSW 17 22 9 12 1013.3 1012.2 0.0
01/10:00pm 21.6 16.7 2.3 28 9.2 SSW 17 22 9 12 1013.3 1012.2 0.0
01/09:30pm 22.7 17.6 2.8 27 9.6 SSW 19 26 10 14 1012.8 1011.8 0.0
01/09:00pm 23.1 17.8 3.1 27 9.7 SSW 20 32 11 17 1012.3 1011.3 0.0
01/08:30pm 24.0 18.8 3.3 26 10.2 SSW 20 28 11 15 1012.0 1011.0 0.0
01/08:00pm 24.7 18.8 1.6 22 11.1 SSW 22 35 12 19 1011.6 1010.6 0.0
01/07:30pm 26.2 19.8 0.8 19 12.1 SSW 24 35 13 19 1011.1 1010.1 0.0
01/07:00pm 27.4 20.2 1.0 18 12.8 SSW 28 46 15 25 1010.6 1009.6 0.0
01/06:59pm 27.5 20.4 1.1 18 12.8 SSW 28 46 15 25 1010.6 1009.6 0.0
01/06:30pm 28.3 20.4 -1.7 14 13.9 SSW 30 39 16 21 1010.3 1009.2 0.0
01/06:00pm 28.6 20.7 1.2 17 13.4 SSW 32 46 17 25 1009.9 1008.8 0.0
01/05:30pm 29.5 22.4 1.1 16 13.9 SW 28 39 15 21 1009.6 1008.5 0.0
01/05:00pm 28.9 22.1 3.0 19 13.1 SSW 28 39 15 21 1009.4 1008.3 0.0
01/04:30pm 29.3 23.2 6.7 24 12.2 SW 28 35 15 19 1009.5 1008.4 0.0
01/04:00pm 29.6 24.0 8.6 27 11.7 SSW 28 43 15 23 1009.5 1008.4 0.0
01/03:30pm 29.2 23.5 8.3 27 11.6 SW 28 41 15 22 1009.6 1008.5 0.0
01/03:00pm 29.0 24.2 11.6 34 10.2 SW 28 39 15 21 1009.9 1008.8 0.0
01/02:30pm 28.6 24.5 13.7 40 9.0 SW 28 37 15 20 1009.9 1008.8 0.0
01/02:00pm 29.6 24.7 13.8 38 9.6 SW 32 46 17 25 1009.6 1008.5 0.0
01/01:30pm 29.4 25.9 15.5 43 8.6 SW 28 43 15 23 1009.6 1008.5 0.0
01/01:00pm 29.2 25.8 15.7 44 8.4 SSW 28 43 15 23 1009.6 1008.5 0.0
01/12:30pm 29.8 26.7 15.5 42 8.9 SW 26 43 14 23 1009.7 1008.6 0.0
01/12:00pm 28.5 25.2 15.1 44 8.3 SSW 26 35 14 19 1009.6 1008.5 0.0
01/11:30am 27.6 24.0 15.3 47 7.6 SSW 28 35 15 19 1009.4 1008.3 0.0

Other Formats:

Comma delimited format used in spreadsheet applications
http://www.bom.gov.au/fwo/IDN60801/IDN60801.95709.axf

JavaScript Object Notation format (JSON) in row-major order
http://www.bom.gov.au/fwo/IDN60801/IDN60801.95709.json